Details From EVRA - Riga Intl
To EPBY - BYDGOSZCZ Szwederowo
Flight Number -
Tags decoded
Created
Modified
Stats Distance 311 nm / 576 km
Max Altitude 0 ft / 0 m
Waypoints 5
Social Downloads 1
Likes 0
Share

Download

Looking for another format? Having issues loading an existing format? Contact us
Advertisement - Login to hide

Notes

Requested: EVRA KOMAL ASKOR NERIG IRBAD GOMED NIKMI GRU GOBNI BAVGO EPBY Unmatched points: ASKOR IRBAD NIKMI GOBNI BAVGO

Route

EVRA NERIG GOMED GRU EPBY

ID Type Via Altitude (ft/m) Position (lat/lon) Dist (leg/tot) Name
O EVRA APT - 0 / 0 56.92366 / 23.97119 - / 0 nm Riga Intl
NERIG FIX - 0 / 0 55.30000 / 20.91667 141 / 141 nm
GOMED FIX - 0 / 0 54.45333 / 19.65833 66 / 208 nm
GRU VOR - 0 / 0 53.52124 / 18.78134 63 / 272 nm GRUDZIADZ VOR-DME
O EPBY APT - 0 / 0 53.10300 / 17.96525 38 / 310 nm BYDGOSZCZ Szwederowo

Altitude Profile

Advertisement - Login to hide

Weather


0- 5 10 15 20 25 30 35+ Temperature / °C

Clouds and Precipitation
Forecast for 2021-07-29 12:00 UTC. Updated 4 hours ago

Ground ~20,000 ft ~40,000 ft Winds

EVRA

Details ICAO EVRA (RIX)
Name Riga Intl
Region Latvia
Timezone Europe/Riga (UTC+3.0)
Stats Elevation 34 ft / 10 m (AMSL)
Location 56.920700° 23.970700°
Runways 1
Magnetic Variation 8.174° E

METAR

EVRA 291250Z 22009KT 190V270 9999 FEW055CB 27/13 Q1004 NOSIG

Decode

TAF

TAF EVRA 291101Z 2912/3012 22009KT 9999 SCT030 TEMPO 2912/2918 SCT040CB PROB40 TEMPO 2923/3005 SCT040CB TEMPO 3006/3009 SCT030CB TEMPO 3011/3012 22020G30KT

Decode

Departure Runways

ID Width Length Bearing (true/mag) Surface Threshold Overrun Markings Lighting
18 148 ft / 45 m 10,509 ft / 3,203 m 185.16° / 176.98° ASPHALT 0 ft / 0 m 171 ft / 52 m PREC-APP CENTERLINE EDGE THRESHOLD ALSF-II REIL-OMNI
36 148 ft / 45 m 10,509 ft / 3,203 m 5.15° / 356.98° ASPHALT 0 ft / 0 m 167 ft / 51 m PREC-APP CENTERLINE EDGE THRESHOLD ALSF-II REIL-OMNI

EPBY

Details ICAO EPBY (BZG)
Name Bydgoszcz Ignacy Jan Paderewski
Region Poland
Timezone Europe/Warsaw (UTC+2.0)
Stats Elevation 235 ft / 72 m (AMSL)
Location 53.096800° 17.977700°
Runways 1
Magnetic Variation 5.617° E

METAR

EPBY 291300Z 26015KT CAVOK 26/11 Q1009

Decode

TAF

TAF EPBY 291130Z 2912/3012 24010KT CAVOK TEMPO 2912/2916 27015G28KT -SHRA SCT040TCU TEMPO 3009/3012 27015G28KT

Decode

Destination Runways

ID Width Length Bearing (true/mag) Surface Threshold Overrun Markings Lighting
08 198 ft / 60 m 8,178 ft / 2,493 m 82.01° / 76.39° ASPHALT 0 ft / 0 m 0 ft / 0 m PREC-APP MALSR
26 198 ft / 60 m 8,178 ft / 2,493 m 262.04° / 256.42° ASPHALT 0 ft / 0 m 0 ft / 0 m PREC-APP MALSR

Approach Navaids

Runway Type Ident Frequency Range Bearing (true/mag) Slope Elevation
26 DME BYD 109.10 MHz 18 nm / 33 km - - 295 ft / 90 m (AMSL)
26 LOC-ILS BYD 109.10 MHz 18 nm / 33 km 262.02° / 256.40 ° - 235 ft / 72 m (AMSL)
26 GS BYD 109.10 MHz 10 nm / 19 km 262.02° / 256.40 ° 3.00° 235 ft / 72 m (AMSL)